Time;durP1;ratioP1;P1;durP2;ratioP2;P2;SDS_P1;SDS_P2;PMS_P1;PMS_P2;Temp;Humidity;BMP_temperature;BMP_pressure;BME280_temperature;BME280_humidity;BME280_pressure;Samples;Min_cycle;Max_cycle;Signal;HPM_P1;HPM_P2
2024/01/10 00:01:14;;;;;;;2.97;2.63;;;;;;;20.95;26.71;96033.03;6061465;28;109514;-57
2024/01/10 00:04:17;;;;;;;2.63;2.23;;;;;;;20.97;26.53;96033.56;6060300;28;109036;-57
2024/01/10 00:07:20;;;;;;;4.47;2.90;;;;;;;20.93;26.18;96025.34;6036979;28;109280;-56
2024/01/10 00:10:24;;;;;;;3.40;2.70;;;;;;;20.91;26.51;96028.28;6036075;28;109128;-57
2024/01/10 00:13:27;;;;;;;3.60;2.77;;;;;;;20.86;26.54;96025.63;6060133;28;109034;-56
2024/01/10 00:16:32;;;;;;;3.43;2.93;;;;;;;20.89;26.67;96034.94;6060620;28;109523;-57
2024/01/10 00:19:35;;;;;;;3.57;3.00;;;;;;;20.90;26.44;96041.84;6049416;28;110514;-57
2024/01/10 00:22:38;;;;;;;3.60;2.90;;;;;;;20.80;26.34;96026.72;6059621;28;109359;-57
2024/01/10 00:25:42;;;;;;;5.40;2.90;;;;;;;20.90;26.11;96039.97;6046884;28;109288;-57
2024/01/10 00:28:45;;;;;;;3.40;3.07;;;;;;;20.91;26.33;96046.91;6046875;28;110017;-57
2024/01/10 00:31:52;;;;;;;3.13;2.83;;;;;;;20.92;26.02;96047.69;6042674;28;110143;-57
2024/01/10 00:34:55;;;;;;;3.93;3.13;;;;;;;20.89;26.49;96042.91;6057498;28;110058;-57
2024/01/10 00:37:58;;;;;;;3.40;2.83;;;;;;;20.91;26.15;96048.75;6055712;28;109114;-57
2024/01/10 00:41:02;;;;;;;3.73;2.70;;;;;;;20.90;26.18;96042.63;6046060;28;109743;-57
2024/01/10 00:44:06;;;;;;;3.20;2.70;;;;;;;20.89;26.34;96043.72;6057037;28;110146;-57
2024/01/10 00:47:11;;;;;;;3.63;2.93;;;;;;;20.90;26.71;96049.84;6062795;28;110343;-57
2024/01/10 00:50:14;;;;;;;3.43;3.07;;;;;;;20.87;26.85;96048.50;6041641;28;109065;-60
2024/01/10 00:53:17;;;;;;;3.07;2.77;;;;;;;20.87;26.55;96053.03;6035756;28;110068;-57
2024/01/10 00:56:20;;;;;;;4.20;3.37;;;;;;;20.87;26.65;96051.19;6039387;28;109220;-57
2024/01/10 00:59:24;;;;;;;3.50;3.00;;;;;;;20.88;26.32;96049.31;6052211;28;110299;-57
2024/01/10 01:02:28;;;;;;;3.07;2.77;;;;;;;20.86;26.24;96049.59;6062137;28;110248;-57
2024/01/10 01:05:31;;;;;;;2.87;2.50;;;;;;;20.86;26.46;96049.59;6052999;28;109408;-57
2024/01/10 01:08:35;;;;;;;3.43;2.97;;;;;;;20.87;26.07;96053.84;6059754;28;109234;-57
2024/01/10 01:11:39;;;;;;;3.83;2.97;;;;;;;20.88;26.02;96050.09;6054218;28;109039;-57
2024/01/10 01:14:42;;;;;;;3.00;2.70;;;;;;;20.90;26.10;96050.63;6058290;28;109010;-57
2024/01/10 01:17:46;;;;;;;3.53;2.97;;;;;;;20.89;26.38;96041.06;6033469;28;109331;-57
2024/01/10 01:20:50;;;;;;;3.67;3.10;;;;;;;20.90;26.06;96042.63;6051047;28;112807;-57
2024/01/10 01:23:53;;;;;;;3.33;2.77;;;;;;;20.88;26.17;96034.16;6061164;28;109007;-57
2024/01/10 01:26:56;;;;;;;3.10;2.70;;;;;;;20.86;26.15;96033.63;6058207;28;110212;-57
2024/01/10 01:29:59;;;;;;;3.30;3.00;;;;;;;20.89;26.17;96040.25;6056554;28;109043;-57
2024/01/10 01:33:04;;;;;;;3.43;2.97;;;;;;;20.88;26.21;96036.00;6063084;28;109225;-57
2024/01/10 01:36:08;;;;;;;4.60;3.47;;;;;;;20.88;26.30;96038.66;6040565;28;109207;-57
2024/01/10 01:39:13;;;;;;;3.60;2.60;;;;;;;20.87;26.50;96027.22;6041280;28;109049;-57
2024/01/10 01:42:16;;;;;;;3.10;2.80;;;;;;;20.85;26.43;96021.38;6061543;28;109148;-57
2024/01/10 01:45:19;;;;;;;3.20;2.90;;;;;;;20.86;26.56;96028.31;6062172;28;109196;-57
2024/01/10 01:48:25;;;;;;;3.47;2.70;;;;;;;20.86;26.39;96036.28;6061595;28;109125;-57
2024/01/10 01:51:30;;;;;;;3.03;2.73;;;;;;;20.85;26.46;96032.03;6039125;28;109546;-57
2024/01/10 01:54:34;;;;;;;3.50;2.93;;;;;;;20.86;26.26;96032.81;6054312;28;110197;-57
2024/01/10 01:57:38;;;;;;;3.03;2.73;;;;;;;20.85;26.26;96018.72;6039864;28;110085;-57
2024/01/10 02:00:41;;;;;;;3.30;2.90;;;;;;;20.85;26.34;96017.94;6045854;28;109246;-57
2024/01/10 02:03:46;;;;;;;2.80;2.57;;;;;;;20.85;26.26;96013.41;6057844;28;108998;-57
2024/01/10 02:06:49;;;;;;;2.87;2.30;;;;;;;20.85;26.30;96010.75;6062713;28;110019;-56
2024/01/10 02:09:52;;;;;;;3.53;2.90;;;;;;;20.86;26.03;96011.53;6057708;28;109113;-56
2024/01/10 02:12:56;;;;;;;3.33;2.40;;;;;;;20.85;26.44;96007.28;6050741;28;109050;-57
2024/01/10 02:15:59;;;;;;;3.80;2.90;;;;;;;20.82;25.92;96007.81;6061969;28;109223;-56
2024/01/10 02:19:18;;;;;;;3.40;2.80;;;;;;;20.84;26.38;96003.84;6057752;28;109572;-56
2024/01/10 02:22:21;;;;;;;3.03;2.57;;;;;;;20.83;26.70;96004.88;6060786;28;109209;-56
2024/01/10 02:25:26;;;;;;;3.40;2.60;;;;;;;20.82;26.17;96008.63;6037630;28;110431;-57
2024/01/10 02:28:29;;;;;;;3.20;2.80;;;;;;;20.80;26.27;96008.09;6044325;28;109290;-56
2024/01/10 02:31:32;;;;;;;2.80;2.50;;;;;;;20.82;26.46;96010.47;6060859;28;110581;-56
2024/01/10 02:34:35;;;;;;;3.47;2.83;;;;;;;20.79;26.38;96009.16;6059517;28;109244;-57
2024/01/10 02:37:38;;;;;;;2.60;2.40;;;;;;;20.80;26.11;96016.06;6054493;28;109819;-57
2024/01/10 02:40:43;;;;;;;2.80;2.40;;;;;;;20.79;26.40;96011.81;6062949;28;109363;-57
2024/01/10 02:43:46;;;;;;;2.57;2.33;;;;;;;20.79;26.56;96009.16;6061532;28;109012;-57
2024/01/10 02:46:49;;;;;;;4.20;2.80;;;;;;;20.81;26.23;96012.34;6041180;28;110278;-57
2024/01/10 02:49:52;;;;;;;2.73;2.47;;;;;;;20.80;26.05;96008.09;6060554;28;109192;-56
2024/01/10 02:52:55;;;;;;;2.53;2.20;;;;;;;20.82;26.26;96010.47;6061475;28;109207;-56
2024/01/10 02:56:00;;;;;;;2.73;2.10;;;;;;;20.82;26.21;96019.25;6063973;28;109235;-57
2024/01/10 02:59:03;;;;;;;3.23;2.40;;;;;;;20.82;25.87;96013.13;6049416;28;110120;-57
2024/01/10 03:02:06;;;;;;;3.30;2.40;;;;;;;20.89;25.57;96019.78;6061205;28;109077;-57
2024/01/10 03:05:09;;;;;;;3.13;2.10;;;;;;;20.85;25.79;96012.63;6057842;28;109344;-57
2024/01/10 03:08:13;;;;;;;4.20;2.70;;;;;;;20.82;26.28;96013.13;6058379;28;109450;-57
2024/01/10 03:11:18;;;;;;;3.30;2.43;;;;;;;20.80;26.20;96016.06;6048063;28;110498;-57
2024/01/10 03:14:21;;;;;;;2.73;2.43;;;;;;;20.79;26.03;96013.69;6058649;28;110006;-57
2024/01/10 03:17:25;;;;;;;3.40;2.40;;;;;;;20.78;26.42;96017.41;6060035;28;109028;-57
2024/01/10 03:20:28;;;;;;;2.50;2.03;;;;;;;20.77;26.17;96015.84;6051132;28;109199;-57
2024/01/10 03:23:31;;;;;;;2.77;2.50;;;;;;;20.76;26.24;96020.34;6054211;28;109168;-57
2024/01/10 03:26:35;;;;;;;3.07;2.20;;;;;;;20.72;26.19;96019.31;6056932;28;109240;-56
2024/01/10 03:29:39;;;;;;;2.60;2.30;;;;;;;20.75;26.16;96018.75;6058361;28;109120;-57
2024/01/10 03:32:42;;;;;;;3.00;2.40;;;;;;;20.77;25.85;96021.94;6046080;28;110199;-57
2024/01/10 03:35:45;;;;;;;2.73;2.30;;;;;;;20.77;26.03;96018.50;6055281;28;108994;-57
2024/01/10 03:38:48;;;;;;;2.53;2.33;;;;;;;20.78;26.14;96020.88;6060598;28;110444;-57
2024/01/10 03:41:52;;;;;;;2.93;2.30;;;;;;;20.78;25.88;96015.56;6057343;28;108918;-57
2024/01/10 03:44:55;;;;;;;3.00;2.40;;;;;;;20.78;26.12;96014.75;6046957;28;109401;-57
2024/01/10 03:47:58;;;;;;;6.23;2.40;;;;;;;20.79;25.40;96009.16;6059633;28;110215;-57
2024/01/10 03:51:02;;;;;;;2.83;2.40;;;;;;;20.81;25.52;96019.53;6056217;28;109063;-57
2024/01/10 03:54:05;;;;;;;2.80;2.60;;;;;;;20.78;25.99;96023.53;6057550;28;110166;-57
2024/01/10 03:57:09;;;;;;;2.23;2.03;;;;;;;20.77;26.37;96027.25;6031048;28;110260;-57
2024/01/10 04:00:13;;;;;;;4.70;2.73;;;;;;;20.68;25.96;96009.50;6043924;28;109281;-57
2024/01/10 04:03:16;;;;;;;2.30;2.10;;;;;;;20.78;25.73;96031.50;6059679;28;109003;-57
2024/01/10 04:06:20;;;;;;;2.97;2.47;;;;;;;20.86;25.48;96033.63;6034973;28;110088;-57
2024/01/10 04:09:23;;;;;;;2.60;2.40;;;;;;;20.89;25.45;96034.94;6046929;28;109262;-57
2024/01/10 04:12:28;;;;;;;3.70;2.70;;;;;;;20.82;26.61;96037.06;6061421;28;109333;-54
2024/01/10 04:15:31;;;;;;;5.60;2.73;;;;;;;21.18;25.49;96040.41;6063415;28;109120;-53
2024/01/10 04:18:34;;;;;;;2.60;2.23;;;;;;;21.43;25.33;96042.09;6054653;28;111126;-53
2024/01/10 04:21:37;;;;;;;4.90;4.50;;;;;;;21.39;25.45;96039.22;6064260;28;109057;-56
2024/01/10 04:24:40;;;;;;;7.03;5.43;;;;;;;21.13;25.50;96035.09;6063815;28;110087;-57
2024/01/10 04:27:45;;;;;;;8.77;8.00;;;;;;;21.02;25.97;96041.53;6064308;28;110175;-57
2024/01/10 04:30:48;;;;;;;9.40;8.60;;;;;;;20.97;26.00;96046.84;6048359;28;109547;-56
2024/01/10 04:33:51;;;;;;;7.70;7.00;;;;;;;20.91;26.14;96044.22;6054848;28;109362;-57
2024/01/10 04:36:54;;;;;;;7.77;7.07;;;;;;;20.88;26.15;96058.09;6083945;28;109245;-57
2024/01/10 04:39:57;;;;;;;6.40;5.90;;;;;;;20.90;26.07;96057.81;6057635;28;109303;-57
2024/01/10 04:43:01;;;;;;;6.97;6.37;;;;;;;21.06;26.04;96055.91;6059873;28;109047;-57
2024/01/10 04:46:05;;;;;;;9.33;5.70;;;;;;;21.19;25.94;96061.44;6054002;28;109208;-57
2024/01/10 04:49:08;;;;;;;5.50;5.10;;;;;;;21.35;25.94;96064.81;6063951;28;110156;-57
2024/01/10 04:52:12;;;;;;;20.47;6.37;;;;;;;21.54;25.79;96066.81;6049279;28;109185;-57
2024/01/10 04:55:15;;;;;;;8.23;5.30;;;;;;;21.59;25.86;96072.91;6057147;28;109825;-57
2024/01/10 04:58:19;;;;;;;7.60;4.97;;;;;;;21.67;25.49;96069.63;6063170;28;109179;-57
2024/01/10 05:01:23;;;;;;;11.53;5.10;;;;;;;21.67;25.97;96074.16;6053332;28;109119;-57
2024/01/10 05:04:26;;;;;;;6.43;4.57;;;;;;;21.65;25.69;96070.97;6052958;28;110370;-57
2024/01/10 05:07:29;;;;;;;8.20;4.47;;;;;;;21.66;25.81;96072.56;6063850;28;109551;-57
2024/01/10 05:10:32;;;;;;;7.40;4.57;;;;;;;21.34;26.63;96078.38;6060249;28;109528;-57
2024/01/10 05:13:37;;;;;;;6.73;3.80;;;;;;;21.31;26.17;96079.72;6061919;28;109548;-58
2024/01/10 05:16:40;;;;;;;4.70;3.80;;;;;;;21.16;26.04;96071.81;6055832;28;109247;-57
2024/01/10 05:19:45;;;;;;;3.70;3.23;;;;;;;21.17;25.47;96068.91;6062831;28;109058;-57
2024/01/10 05:22:48;;;;;;;4.27;3.87;;;;;;;21.38;25.17;96080.22;6062645;28;109880;-61
2024/01/10 05:25:51;;;;;;;3.40;3.07;;;;;;;21.44;24.89;96081.78;6045222;28;109866;-61
2024/01/10 05:28:56;;;;;;;4.97;3.50;;;;;;;21.48;24.86;96080.16;6039230;28;110333;-61
2024/01/10 05:31:59;;;;;;;4.93;3.53;;;;;;;21.41;24.56;96082.31;6054425;28;109181;-61
2024/01/10 05:35:02;;;;;;;3.13;2.83;;;;;;;21.46;24.73;96087.63;6062396;28;109085;-60
2024/01/10 05:38:05;;;;;;;4.73;3.20;;;;;;;21.44;24.66;96095.09;6029203;28;109657;-60
2024/01/10 05:41:08;;;;;;;4.03;2.90;;;;;;;21.42;24.97;96097.22;6039622;28;110262;-60
2024/01/10 05:44:13;;;;;;;3.83;3.20;;;;;;;21.39;25.17;96091.66;6039526;28;109000;-60
2024/01/10 05:47:16;;;;;;;4.13;3.00;;;;;;;21.37;25.17;96093.81;6038520;28;109121;-60
2024/01/10 05:50:20;;;;;;;5.07;2.83;;;;;;;21.19;25.09;96093.38;6029013;28;110092;-60
2024/01/10 05:53:25;;;;;;;4.17;2.97;;;;;;;21.11;25.24;96085.94;6039100;28;109030;-60
2024/01/10 05:56:28;;;;;;;3.67;2.77;;;;;;;21.07;25.48;96094.75;6038916;28;109242;-60
2024/01/10 05:59:32;;;;;;;3.33;3.00;;;;;;;21.01;25.42;96095.81;6034075;28;109244;-59
2024/01/10 06:02:37;;;;;;;3.40;3.10;;;;;;;21.00;25.60;96102.19;6034385;28;108911;-60
2024/01/10 06:05:42;;;;;;;3.33;3.03;;;;;;;20.99;25.51;96111.25;6039430;28;110089;-60
2024/01/10 06:08:45;;;;;;;3.67;3.30;;;;;;;20.99;25.35;96104.06;6039328;28;110062;-60
2024/01/10 06:11:49;;;;;;;3.20;2.90;;;;;;;21.00;25.43;96110.16;6028479;28;109261;-59
2024/01/10 06:14:53;;;;;;;4.80;2.80;;;;;;;20.99;25.55;96117.34;6038136;28;109069;-59
2024/01/10 06:17:56;;;;;;;4.03;3.00;;;;;;;20.99;25.67;96114.69;6038522;28;109376;-60
2024/01/10 06:21:00;;;;;;;3.33;2.53;;;;;;;20.97;25.54;96116.84;6042924;28;109052;-60
2024/01/10 06:24:03;;;;;;;3.43;3.00;;;;;;;20.98;25.45;96117.63;6051711;28;109394;-60
2024/01/10 06:27:06;;;;;;;3.10;2.80;;;;;;;20.97;25.81;96124.03;6062154;28;110265;-60
2024/01/10 06:30:12;;;;;;;3.23;2.83;;;;;;;20.93;25.52;96121.91;6062137;28;109163;-60
2024/01/10 06:33:15;;;;;;;3.83;3.10;;;;;;;20.92;25.65;96122.97;6057793;28;109063;-57
2024/01/10 06:36:18;;;;;;;4.30;3.40;;;;;;;20.91;25.57;96129.38;6055647;28;108978;-56
2024/01/10 06:39:21;;;;;;;3.90;3.20;;;;;;;20.90;25.85;96130.44;6062539;28;109065;-57
2024/01/10 06:42:26;;;;;;;3.03;2.73;;;;;;;20.89;25.31;96131.50;6062470;28;109124;-57
2024/01/10 06:45:30;;;;;;;3.43;3.10;;;;;;;20.88;25.94;96142.44;6051873;28;109061;-58
2024/01/10 06:48:33;;;;;;;3.03;2.70;;;;;;;20.86;25.34;96137.38;6061137;28;110407;-58
2024/01/10 06:51:37;;;;;;;3.50;2.90;;;;;;;20.87;25.38;96144.28;6061355;28;110115;-57
2024/01/10 06:54:40;;;;;;;5.10;2.97;;;;;;;20.86;25.96;96148.03;6062094;28;110242;-57
2024/01/10 06:57:43;;;;;;;3.47;3.17;;;;;;;20.86;25.79;96148.03;6052002;28;110494;-57
2024/01/10 07:00:47;;;;;;;3.23;2.93;;;;;;;20.86;25.63;96158.66;6061409;28;109278;-57
2024/01/10 07:03:51;;;;;;;4.07;3.67;;;;;;;20.86;25.46;96153.34;6061532;28;109111;-57
2024/01/10 07:06:54;;;;;;;4.60;3.47;;;;;;;20.86;25.40;96158.66;6051167;28;110556;-57
2024/01/10 07:09:57;;;;;;;4.17;3.47;;;;;;;20.87;25.00;96154.13;6028489;28;110048;-58
2024/01/10 07:13:03;;;;;;;3.40;2.90;;;;;;;20.87;25.36;96157.59;6037953;28;109097;-57
2024/01/10 07:16:09;;;;;;;4.27;3.87;;;;;;;20.92;25.23;96156.78;6037726;28;110299;-57
2024/01/10 07:19:13;;;;;;;4.10;3.60;;;;;;;21.04;25.14;96164.47;6032135;28;110678;-57
2024/01/10 07:22:17;;;;;;;3.80;3.50;;;;;;;21.11;24.92;96152.47;6046512;28;109153;-57
2024/01/10 07:25:24;;;;;;;4.40;3.83;;;;;;;21.21;24.58;96165.75;6061598;28;109022;-57
2024/01/10 07:28:28;;;;;;;5.50;3.77;;;;;;;21.28;24.36;96168.13;6061109;28;109117;-57
2024/01/10 07:31:32;;;;;;;4.27;3.80;;;;;;;21.34;24.53;96171.56;6050763;28;109288;-58
2024/01/10 07:34:36;;;;;;;5.00;3.80;;;;;;;21.34;24.65;96171.56;6061563;28;110144;-57
2024/01/10 07:37:39;;;;;;;4.80;4.03;;;;;;;21.30;24.59;96176.63;6061368;28;110205;-57
2024/01/10 07:40:42;;;;;;;4.50;4.10;;;;;;;21.28;24.41;96177.97;6049885;28;110068;-57
2024/01/10 07:43:45;;;;;;;4.40;4.00;;;;;;;21.28;24.35;96192.09;6027519;28;110235;-57
2024/01/10 07:46:50;;;;;;;6.30;4.53;;;;;;;21.31;24.83;96180.88;6037237;28;109295;-57
2024/01/10 07:49:53;;;;;;;4.27;3.87;;;;;;;21.32;24.53;96189.66;6036718;28;109122;-57
2024/01/10 07:52:56;;;;;;;4.70;4.30;;;;;;;21.33;24.77;96184.06;6049260;28;110221;-57
2024/01/10 07:56:00;;;;;;;4.87;4.37;;;;;;;21.36;24.82;96186.22;6054688;28;110032;-57
2024/01/10 07:59:04;;;;;;;5.50;4.90;;;;;;;21.37;24.72;96182.47;6037743;28;110204;-57
2024/01/10 08:02:10;;;;;;;4.63;4.10;;;;;;;21.36;24.54;96183.53;6037651;28;110053;-61
2024/01/10 08:05:13;;;;;;;6.90;4.33;;;;;;;21.38;24.63;96191.25;6026579;28;109090;-57
2024/01/10 08:08:16;;;;;;;4.57;4.17;;;;;;;21.33;24.49;96178.75;6037318;28;109136;-57
2024/01/10 08:11:19;;;;;;;4.80;4.33;;;;;;;21.37;24.95;96192.31;6037483;28;109347;-57
2024/01/10 08:14:23;;;;;;;5.43;4.63;;;;;;;21.35;24.56;96189.94;6036688;28;108825;-58
2024/01/10 08:17:27;;;;;;;4.73;4.10;;;;;;;21.36;24.58;96196.06;6026984;28;110053;-58
2024/01/10 08:20:30;;;;;;;5.17;4.67;;;;;;;21.34;24.92;96196.34;6036889;28;109061;-58
2024/01/10 08:23:34;;;;;;;6.30;5.00;;;;;;;21.35;24.46;96199.78;6056561;28;109128;-58
2024/01/10 08:26:37;;;;;;;5.60;5.00;;;;;;;21.34;24.50;96199.00;6060302;28;110117;-58
2024/01/10 08:29:41;;;;;;;7.23;5.50;;;;;;;21.34;24.51;96200.84;6051044;28;110046;-58
2024/01/10 08:32:45;;;;;;;5.97;4.80;;;;;;;21.31;24.84;96196.84;6059963;28;109101;-58
2024/01/10 08:35:48;;;;;;;5.47;4.80;;;;;;;21.34;24.85;96190.19;6060430;28;110259;-58
2024/01/10 08:38:51;;;;;;;5.87;5.30;;;;;;;21.35;24.53;96192.59;6052672;28;109221;-58
2024/01/10 08:41:55;;;;;;;6.40;5.20;;;;;;;21.40;24.79;96197.91;6051850;28;109016;-58
2024/01/10 08:44:58;;;;;;;5.93;5.33;;;;;;;21.41;24.57;96207.47;6036625;28;109277;-58
2024/01/10 08:48:03;;;;;;;5.83;5.23;;;;;;;21.61;24.93;96193.28;6036548;28;110175;-59
2024/01/10 08:51:10;;;;;;;6.10;5.20;;;;;;;21.71;26.14;96201.22;6025447;28;110237;-59
2024/01/10 08:54:16;;;;;;;7.70;5.73;;;;;;;21.57;25.04;96199.44;6059546;28;109957;-57
2024/01/10 08:57:20;;;;;;;6.27;5.27;;;;;;;21.43;25.40;96201.88;6060678;28;110098;-58
2024/01/10 09:00:24;;;;;;;6.53;5.20;;;;;;;21.35;25.59;96197.13;6063822;28;110353;-57
2024/01/10 09:03:28;;;;;;;5.50;4.90;;;;;;;21.34;24.95;96200.84;6052833;28;110698;-57
2024/01/10 09:06:32;;;;;;;6.77;5.67;;;;;;;21.30;25.36;96200.59;6061782;28;109565;-57
2024/01/10 09:09:35;;;;;;;6.73;5.90;;;;;;;21.29;25.33;96201.66;6040274;28;110105;-56
2024/01/10 09:12:39;;;;;;;6.17;5.57;;;;;;;21.26;25.51;96201.41;6034460;28;109078;-56
2024/01/10 09:15:42;;;;;;;6.10;5.10;;;;;;;21.24;25.41;96195.56;6035008;28;110024;-56
2024/01/10 09:18:46;;;;;;;5.53;5.00;;;;;;;21.24;25.33;96201.69;6040191;28;110113;-56
2024/01/10 09:21:50;;;;;;;6.13;5.50;;;;;;;21.26;25.29;96198.75;6041669;28;109055;-56
2024/01/10 09:24:53;;;;;;;6.37;5.77;;;;;;;21.27;25.15;96197.69;6053394;28;109212;-56
2024/01/10 09:27:56;;;;;;;6.13;5.43;;;;;;;21.36;24.94;96201.38;6051857;28;109215;-56
2024/01/10 09:30:59;;;;;;;5.23;4.83;;;;;;;21.43;24.73;96191.22;6039845;28;110278;-57
2024/01/10 09:34:03;;;;;;;6.20;5.30;;;;;;;21.48;24.92;96196.53;6039750;28;109152;-56
2024/01/10 09:37:07;;;;;;;23.20;21.30;;;;;;;21.45;24.85;96181.09;6029810;28;109711;-57
2024/01/10 09:40:14;;;;;;;29.67;27.37;;;;;;;21.44;25.34;96184.84;6039407;28;109273;-56
2024/01/10 09:43:17;;;;;;;29.53;27.13;;;;;;;21.46;25.57;96186.16;6039542;28;109125;-56
2024/01/10 09:46:21;;;;;;;27.03;24.87;;;;;;;21.48;25.60;96186.66;6037779;28;110316;-57
2024/01/10 09:49:25;;;;;;;25.20;23.20;;;;;;;21.47;25.52;96181.63;6031846;28;109421;-56
2024/01/10 09:52:29;;;;;;;25.93;23.80;;;;;;;21.45;25.60;96181.91;6039275;28;109067;-57
2024/01/10 09:55:36;;;;;;;23.27;21.37;;;;;;;21.45;25.90;96189.09;6041518;28;109276;-59
2024/01/10 09:58:40;;;;;;;20.00;18.27;;;;;;;21.44;25.72;96177.63;6052614;28;109273;-56
2024/01/10 10:01:44;;;;;;;18.13;16.67;;;;;;;21.45;25.60;96175.78;6062624;28;110404;-57
2024/01/10 10:04:55;;;;;;;17.30;15.90;;;;;;;21.45;25.56;96168.56;6062690;28;109243;-57
2024/01/10 10:08:00;;;;;;;15.93;14.63;;;;;;;21.44;25.35;96164.31;6062521;28;109039;-56
2024/01/10 10:11:03;;;;;;;15.03;13.73;;;;;;;21.43;25.42;96154.75;6051332;28;110022;-57
2024/01/10 10:14:16;;;;;;;14.30;13.10;;;;;;;21.45;25.41;96155.25;6061927;28;109631;-57
2024/01/10 10:17:20;;;;;;;12.90;11.70;;;;;;;21.44;25.31;96150.22;6062221;28;109064;-57
2024/01/10 10:20:26;;;;;;;12.90;11.70;;;;;;;21.44;25.26;96143.03;6062287;28;108902;-57
2024/01/10 10:23:29;;;;;;;11.53;10.50;;;;;;;21.45;25.38;96138.50;6035595;28;109202;-57
2024/01/10 10:26:34;;;;;;;10.77;9.67;;;;;;;21.43;25.31;96144.09;6038651;28;109037;-56
2024/01/10 10:29:39;;;;;;;11.50;10.40;;;;;;;21.42;25.47;96131.84;6038961;28;109083;-57
2024/01/10 10:32:43;;;;;;;9.80;8.87;;;;;;;21.44;25.32;96124.38;6028686;28;110823;-57
2024/01/10 10:35:47;;;;;;;10.40;9.03;;;;;;;21.44;25.27;96121.72;6040531;28;109918;-56
2024/01/10 10:38:54;;;;;;;9.47;8.67;;;;;;;21.45;25.28;96115.31;6062444;28;109252;-57
2024/01/10 10:41:57;;;;;;;9.27;8.47;;;;;;;21.47;25.37;96112.38;6062213;28;110220;-57
2024/01/10 10:45:04;;;;;;;9.20;8.40;;;;;;;21.48;24.99;96112.09;6052348;28;110326;-57
2024/01/10 10:48:11;;;;;;;9.13;8.23;;;;;;;21.47;25.21;96107.06;6062416;28;111791;-57
2024/01/10 10:51:20;;;;;;;8.93;8.13;;;;;;;21.46;25.58;96102.78;6061678;28;109100;-60
2024/01/10 10:54:23;;;;;;;7.73;7.03;;;;;;;21.47;25.34;96102.53;6061707;28;108900;-56
2024/01/10 10:57:28;;;;;;;8.00;7.30;;;;;;;21.46;25.12;96090.28;6038446;28;109706;-56
2024/01/10 11:00:32;;;;;;;8.07;7.27;;;;;;;21.47;25.15;96083.88;6038651;28;110463;-56
2024/01/10 11:03:37;;;;;;;7.10;6.50;;;;;;;21.47;25.17;96083.09;6038517;28;109022;-56
2024/01/10 11:06:42;;;;;;;7.17;6.47;;;;;;;21.47;25.06;96081.22;6028514;28;109130;-57
2024/01/10 11:09:48;;;;;;;8.63;6.70;;;;;;;21.46;25.30;96073.50;6038053;28;110073;-57
2024/01/10 11:13:20;;;;;;;7.77;6.57;;;;;;;21.47;25.20;96078.56;6038262;28;109237;-57
2024/01/10 11:16:43;;;;;;;7.77;6.97;;;;;;;21.44;25.25;96073.78;6038023;28;109078;-57
2024/01/10 11:20:14;;;;;;;6.80;6.10;;;;;;;21.44;25.53;96073.78;6027446;28;109158;-56
2024/01/10 11:23:50;;;;;;;6.23;5.73;;;;;;;21.51;25.26;96066.31;6038301;28;109880;-56
2024/01/10 11:27:07;;;;;;;8.03;6.40;;;;;;;21.45;25.00;96061.25;6048870;28;109300;-57
2024/01/10 11:30:12;;;;;;;6.60;5.90;;;;;;;21.39;25.29;96055.19;6050823;28;109119;-57
2024/01/10 11:33:24;;;;;;;6.40;5.80;;;;;;;21.50;25.22;96054.03;6061442;28;110127;-56
2024/01/10 11:36:28;;;;;;;7.00;5.50;;;;;;;21.66;25.28;96048.59;6061546;28;110358;-55
2024/01/10 11:39:32;;;;;;;6.10;5.60;;;;;;;21.52;25.21;96043.91;6061435;28;109014;-57
2024/01/10 11:42:43;;;;;;;6.23;5.63;;;;;;;21.64;27.19;96043.53;6051397;28;110123;-67
2024/01/10 11:45:53;;;;;;;6.40;5.03;;;;;;;21.71;25.14;96035.25;6061194;28;109239;-56
2024/01/10 11:48:56;;;;;;;6.63;5.60;;;;;;;21.71;25.78;96029.94;6061470;28;109557;-56
2024/01/10 11:52:00;;;;;;;8.43;6.50;;;;;;;21.70;25.50;96031.81;6053491;28;109230;-56
2024/01/10 11:55:07;;;;;;;7.83;6.50;;;;;;;21.78;25.80;96027.72;6059843;28;110957;-56
2024/01/10 11:58:12;;;;;;;9.80;6.60;;;;;;;21.73;25.23;96017.91;6060629;28;109258;-56
2024/01/10 12:01:15;;;;;;;7.27;6.57;;;;;;;21.71;25.53;96019.28;6060443;28;109209;-58
2024/01/10 12:04:21;;;;;;;6.87;6.13;;;;;;;21.68;25.53;96014.50;6050586;28;109001;-56
2024/01/10 12:07:36;;;;;;;8.43;6.10;;;;;;;21.71;25.83;96011.28;6060840;28;109602;-57
2024/01/10 12:10:40;;;;;;;6.67;6.07;;;;;;;21.77;26.33;96007.50;6060843;28;109060;-57
2024/01/10 12:13:45;;;;;;;7.03;5.70;;;;;;;21.60;25.75;95999.91;6060280;28;109055;-56
2024/01/10 12:16:48;;;;;;;7.47;6.03;;;;;;;21.48;25.56;95999.47;6051089;28;110104;-56
2024/01/10 12:19:51;;;;;;;7.20;6.43;;;;;;;21.41;25.67;95999.00;6060626;28;109196;-56
2024/01/10 12:22:55;;;;;;;6.80;6.20;;;;;;;21.36;25.70;95986.53;6060211;28;110062;-56
2024/01/10 12:25:58;;;;;;;7.07;6.07;;;;;;;21.32;25.57;95996.09;6055274;28;110845;-56
2024/01/10 12:29:04;;;;;;;6.10;5.47;;;;;;;21.32;25.67;95990.78;6054464;28;109080;-56
2024/01/10 12:32:08;;;;;;;6.73;6.13;;;;;;;21.31;25.95;95999.84;6060771;28;110245;-56
2024/01/10 12:35:12;;;;;;;6.13;5.57;;;;;;;21.31;25.41;95994.53;6064283;28;110111;-61
2024/01/10 12:38:15;;;;;;;7.30;6.60;;;;;;;21.31;25.78;95994.53;6052223;28;109053;-60
2024/01/10 12:41:19;;;;;;;8.20;6.00;;;;;;;21.32;25.33;95997.97;6063799;28;109220;-59
2024/01/10 12:44:28;;;;;;;8.60;6.40;;;;;;;21.30;25.61;96002.78;6040684;28;110022;-60
2024/01/10 12:47:31;;;;;;;7.07;6.37;;;;;;;21.29;25.47;96002.00;6041168;28;109091;-60
2024/01/10 12:50:35;;;;;;;6.70;6.00;;;;;;;21.28;25.37;95997.75;6030897;28;110243;-62
2024/01/10 12:53:39;;;;;;;8.53;5.80;;;;;;;21.26;25.24;96007.09;6056913;28;109389;-60
2024/01/10 12:56:42;;;;;;;6.97;5.97;;;;;;;21.25;25.51;96000.97;6063722;28;109143;-59
2024/01/10 12:59:47;;;;;;;6.90;6.20;;;;;;;21.24;25.34;95995.91;6058998;28;109283;-59
2024/01/10 13:02:50;;;;;;;6.83;5.93;;;;;;;21.21;25.33;95995.41;6057768;28;110271;-60
2024/01/10 13:05:53;;;;;;;7.30;6.60;;;;;;;21.22;25.57;95996.19;6063607;28;109620;-60
2024/01/10 13:08:56;;;;;;;6.60;6.00;;;;;;;21.21;25.43;95997.28;6063077;28;109283;-59
2024/01/10 13:11:59;;;;;;;7.47;6.70;;;;;;;21.19;25.60;96004.75;6052975;28;110123;-59
2024/01/10 13:15:04;;;;;;;7.10;6.50;;;;;;;21.16;25.22;95998.06;6062600;28;109101;-59
2024/01/10 13:18:09;;;;;;;6.13;5.53;;;;;;;21.19;25.29;96008.19;6063539;28;109987;-60
2024/01/10 13:21:14;;;;;;;7.07;6.37;;;;;;;21.18;25.19;95997.81;6063574;28;109101;-60
2024/01/10 13:24:17;;;;;;;6.87;6.17;;;;;;;21.19;25.34;95994.09;6031815;28;110096;-59
2024/01/10 13:27:20;;;;;;;7.23;6.40;;;;;;;21.19;25.24;95991.44;6040059;28;110303;-59
2024/01/10 13:30:26;;;;;;;7.47;6.23;;;;;;;21.20;24.89;95993.03;6039332;28;110075;-60
2024/01/10 13:33:29;;;;;;;7.20;6.50;;;;;;;21.19;25.26;95994.09;6039859;28;109391;-60
2024/01/10 13:36:32;;;;;;;6.30;5.70;;;;;;;21.17;25.34;95993.53;6028711;28;109790;-59
2024/01/10 13:39:36;;;;;;;7.20;6.50;;;;;;;21.16;25.42;95987.44;6039641;28;109380;-60
2024/01/10 13:42:39;;;;;;;6.07;5.47;;;;;;;21.16;25.33;95998.06;6039176;28;109350;-59
2024/01/10 13:45:44;;;;;;;7.30;6.20;;;;;;;21.14;25.01;95988.78;6033742;28;110332;-59
2024/01/10 13:48:47;;;;;;;7.83;6.47;;;;;;;21.13;25.32;95987.19;6037961;28;109118;-59
2024/01/10 13:51:50;;;;;;;6.53;5.90;;;;;;;21.12;25.43;95991.72;6039248;28;108805;-59
2024/01/10 13:54:53;;;;;;;7.00;6.30;;;;;;;21.09;25.50;95980.84;6039504;28;110114;-56
2024/01/10 13:57:57;;;;;;;7.30;6.60;;;;;;;21.11;25.18;95990.13;6029102;28;109219;-56
2024/01/10 14:01:01;;;;;;;6.90;6.30;;;;;;;21.10;25.29;95983.22;6038503;28;109440;-56
2024/01/10 14:04:05;;;;;;;6.93;6.23;;;;;;;21.11;25.12;95989.34;6038853;28;109189;-56
2024/01/10 14:07:08;;;;;;;7.10;6.40;;;;;;;21.12;25.12;95998.91;6039180;28;109421;-56
2024/01/10 14:10:12;;;;;;;7.03;6.20;;;;;;;21.12;25.20;95990.94;6029042;28;109732;-56
2024/01/10 14:13:16;;;;;;;7.47;6.77;;;;;;;21.12;24.83;95999.69;6039161;28;110041;-56
2024/01/10 14:16:21;;;;;;;7.67;6.27;;;;;;;21.12;25.30;95990.94;6039076;28;109210;-56